createdAt,value
2023-02-13T00:00:39.288Z,8.20
2023-02-13T00:04:42.183Z,9.00
2023-02-13T00:08:43.234Z,8.80
2023-02-13T00:12:46.269Z,9.10
2023-02-13T00:16:47.416Z,9.50
2023-02-13T00:20:57.406Z,10.30
2023-02-13T00:24:58.762Z,10.50
2023-02-13T00:29:00.007Z,10.00
2023-02-13T00:33:01.187Z,9.40
2023-02-13T00:37:02.344Z,9.50
2023-02-13T00:41:04.232Z,9.90
2023-02-13T00:45:05.774Z,10.10
2023-02-13T00:49:07.161Z,10.40
2023-02-13T00:53:08.185Z,9.30
2023-02-13T00:57:09.365Z,10.20
2023-02-13T01:01:10.519Z,9.00
2023-02-13T01:05:11.910Z,8.80
2023-02-13T01:09:12.879Z,8.90
2023-02-13T01:13:16.040Z,8.80
2023-02-13T01:17:17.058Z,8.50
2023-02-13T01:21:20.756Z,10.00
2023-02-13T01:25:22.615Z,10.00
2023-02-13T01:29:23.750Z,10.30
2023-02-13T01:33:26.863Z,8.20
2023-02-13T01:37:27.827Z,9.60
2023-02-13T01:41:29.030Z,10.00
2023-02-13T01:45:30.589Z,8.40
2023-02-13T01:49:31.852Z,8.50
2023-02-13T01:53:45.447Z,9.20
2023-02-13T01:57:53.197Z,10.20
2023-02-13T02:01:56.554Z,9.50
2023-02-13T02:05:59.314Z,9.10
2023-02-13T02:10:04.103Z,9.60
2023-02-13T02:14:05.307Z,9.80
2023-02-13T02:18:15.743Z,8.90
2023-02-13T02:22:47.932Z,9.20
2023-02-13T02:27:01.719Z,8.30
2023-02-13T02:31:15.771Z,7.80
2023-02-13T02:35:23.684Z,7.90
2023-02-13T02:43:58.760Z,8.10
2023-02-13T02:48:38.578Z,8.50
2023-02-13T02:52:46.485Z,8.80
2023-02-13T02:56:49.379Z,8.50
2023-02-13T03:01:10.900Z,9.50
2023-02-13T03:05:43.592Z,10.00
2023-02-13T03:10:15.768Z,8.30
2023-02-13T03:14:19.766Z,7.60
2023-02-13T03:18:39.154Z,7.70
2023-02-13T03:22:43.913Z,8.50
2023-02-13T03:26:54.822Z,8.50
2023-02-13T03:31:14.881Z,8.10
2023-02-13T03:35:43.457Z,9.00
2023-02-13T03:40:09.554Z,8.50
2023-02-13T03:44:20.209Z,9.40
2023-02-13T03:48:46.527Z,8.60
2023-02-13T03:52:57.500Z,8.20
2023-02-13T03:57:16.709Z,8.30
2023-02-13T04:01:20.901Z,9.10
2023-02-13T04:05:28.625Z,9.00
2023-02-13T04:09:31.790Z,9.00
2023-02-13T04:13:36.079Z,9.00
2023-02-13T04:17:49.315Z,8.80
2023-02-13T04:21:56.558Z,8.80
2023-02-13T04:26:01.303Z,8.30
2023-02-13T04:30:02.371Z,7.40
2023-02-13T04:34:03.375Z,7.10
2023-02-13T04:38:04.668Z,7.00
2023-02-13T04:42:05.774Z,7.10
2023-02-13T04:46:06.939Z,6.80
2023-02-13T04:50:08.622Z,6.80
2023-02-13T04:54:10.695Z,6.60
2023-02-13T04:58:11.628Z,7.00
2023-02-13T05:02:12.622Z,7.00
2023-02-13T05:06:14.175Z,6.80
2023-02-13T05:10:15.183Z,6.80
2023-02-13T05:14:16.101Z,6.80
2023-02-13T05:18:17.112Z,6.20
2023-02-13T05:22:36.320Z,6.50
2023-02-13T05:26:38.545Z,6.60
2023-02-13T05:30:39.758Z,6.70
2023-02-13T05:34:40.718Z,5.50
2023-02-13T05:38:41.808Z,6.30
2023-02-13T05:42:42.954Z,7.20
2023-02-13T05:46:44.684Z,7.20
2023-02-13T05:50:47.241Z,7.10
2023-02-13T05:54:48.420Z,7.00
2023-02-13T05:58:56.151Z,7.00
2023-02-13T06:02:57.389Z,6.70
2023-02-13T06:06:59.328Z,6.60
2023-02-13T06:11:00.661Z,6.00
2023-02-13T06:15:01.962Z,6.30
2023-02-13T06:19:02.930Z,6.40
2023-02-13T06:23:04.316Z,6.40
2023-02-13T06:27:05.308Z,6.00
2023-02-13T06:31:06.681Z,6.20
2023-02-13T06:35:08.515Z,5.80
2023-02-13T06:39:10.583Z,6.20
2023-02-13T06:43:11.820Z,5.30
2023-02-13T06:47:12.844Z,6.00
2023-02-13T06:51:14.003Z,6.00
2023-02-13T06:55:16.408Z,6.00
2023-02-13T06:59:17.435Z,5.90
2023-02-13T07:03:18.894Z,5.90
2023-02-13T07:07:20.041Z,5.90
2023-02-13T07:11:23.805Z,5.90
2023-02-13T07:15:25.137Z,5.60
2023-02-13T07:19:26.512Z,6.20
2023-02-13T07:23:27.546Z,6.10
2023-02-13T07:27:28.884Z,6.30
2023-02-13T07:31:30.187Z,6.40
2023-02-13T07:35:32.065Z,6.30
2023-02-13T07:39:33.376Z,6.40
2023-02-13T07:43:34.382Z,6.40
2023-02-13T07:47:35.570Z,7.00
2023-02-13T07:51:36.841Z,7.40
2023-02-13T07:55:39.180Z,7.70
2023-02-13T07:59:40.454Z,8.00
2023-02-13T08:03:41.800Z,8.30
2023-02-13T08:07:43.909Z,8.50
2023-02-13T08:11:54.027Z,8.70
2023-02-13T08:15:55.347Z,9.10
2023-02-13T08:19:56.830Z,9.30
2023-02-13T08:23:58.952Z,9.40
2023-02-13T08:28:01.086Z,9.30
2023-02-13T08:32:02.375Z,9.30
2023-02-13T08:36:04.557Z,8.00
2023-02-13T08:40:09.880Z,9.10
2023-02-13T08:44:11.030Z,9.50
2023-02-13T08:48:12.418Z,9.90
2023-02-13T08:52:13.794Z,9.50
2023-02-13T08:56:15.037Z,9.50
2023-02-13T09:00:16.701Z,9.60
2023-02-13T09:04:18.098Z,9.50
2023-02-13T09:08:19.566Z,10.00
2023-02-13T09:12:21.615Z,9.70
2023-02-13T09:16:23.243Z,9.90
2023-02-13T09:20:24.917Z,9.20
2023-02-13T09:24:26.300Z,8.80
2023-02-13T09:28:29.774Z,9.00
2023-02-13T09:32:31.137Z,9.90
2023-02-13T09:36:32.964Z,9.70
2023-02-13T09:40:38.148Z,8.20
2023-02-13T09:44:43.117Z,9.30
2023-02-13T09:48:48.626Z,9.70
2023-02-13T09:52:52.851Z,10.90
2023-02-13T09:57:10.045Z,10.90
2023-02-13T10:01:29.614Z,11.00
2023-02-13T10:05:49.366Z,9.70
2023-02-13T10:09:56.958Z,10.20
2023-02-13T10:14:17.297Z,10.20
2023-02-13T10:18:25.178Z,10.10
2023-02-13T10:22:32.832Z,10.70
2023-02-13T10:26:45.045Z,10.20
2023-02-13T10:30:55.607Z,10.40
2023-02-13T10:35:00.546Z,11.30
2023-02-13T10:39:08.148Z,11.70
2023-02-13T10:43:11.975Z,10.60
2023-02-13T10:47:26.028Z,11.10
2023-02-13T10:51:40.347Z,11.40
2023-02-13T10:55:51.132Z,11.00
2023-02-13T10:59:56.074Z,12.20
2023-02-13T11:04:09.980Z,10.90
2023-02-13T11:08:26.212Z,11.10
2023-02-13T11:12:33.284Z,11.00
2023-02-13T11:16:40.480Z,11.60
2023-02-13T11:20:44.957Z,11.30
2023-02-13T11:24:55.467Z,12.00
2023-02-13T11:29:00.494Z,12.50
2023-02-13T11:33:08.086Z,12.40
2023-02-13T11:37:18.540Z,12.70
2023-02-13T11:41:20.350Z,13.70
2023-02-13T11:45:23.881Z,13.00
2023-02-13T11:49:28.266Z,13.30
2023-02-13T11:53:33.065Z,13.70
2023-02-13T11:57:36.948Z,13.10
2023-02-13T12:01:38.285Z,13.80
2023-02-13T12:05:39.397Z,13.60
2023-02-13T12:09:40.981Z,13.50
2023-02-13T12:13:42.209Z,13.40
2023-02-13T12:17:45.538Z,13.80
2023-02-13T12:22:02.271Z,13.80
2023-02-13T12:26:08.234Z,13.40
2023-02-13T12:30:19.097Z,13.70
2023-02-13T12:34:39.197Z,12.90
2023-02-13T12:39:03.010Z,12.90
2023-02-13T12:43:30.731Z,14.40
2023-02-13T12:47:41.357Z,15.30
2023-02-13T12:52:08.945Z,14.40
2023-02-13T12:56:25.904Z,14.30
2023-02-13T13:00:43.064Z,15.50
2023-02-13T13:05:24.271Z,12.80
2023-02-13T13:09:41.746Z,13.10
2023-02-13T13:13:49.261Z,14.20
2023-02-13T13:18:09.375Z,12.90
2023-02-13T13:22:31.875Z,12.30
2023-02-13T13:26:39.786Z,13.10
2023-02-13T13:30:42.969Z,12.00
2023-02-13T13:34:45.137Z,13.40
2023-02-13T13:38:53.065Z,14.80
2023-02-13T13:42:58.148Z,13.70
2023-02-13T13:47:19.534Z,14.00
2023-02-13T13:51:21.459Z,13.40
2023-02-13T13:55:49.346Z,13.40
2023-02-13T14:00:03.167Z,14.00
2023-02-13T14:04:24.452Z,14.60
2023-02-13T14:08:41.424Z,12.80
2023-02-13T14:12:48.538Z,12.00
2023-02-13T14:16:50.012Z,12.70
2023-02-13T14:20:55.880Z,12.40
2023-02-13T14:25:00.593Z,13.50
2023-02-13T14:29:14.890Z,14.00
2023-02-13T14:33:28.807Z,13.90
2023-02-13T14:37:35.164Z,14.40
2023-02-13T14:41:55.655Z,13.20
2023-02-13T14:46:04.052Z,14.00
2023-02-13T14:50:07.210Z,14.10
2023-02-13T14:54:27.816Z,13.90
2023-02-13T14:58:33.148Z,13.90
2023-02-13T15:02:38.094Z,14.00
2023-02-13T15:06:42.314Z,13.80
2023-02-13T15:10:49.992Z,13.50
2023-02-13T15:14:51.136Z,13.90
2023-02-13T15:18:54.481Z,14.20
2023-02-13T15:22:57.245Z,14.30
2023-02-13T15:27:04.344Z,14.10
2023-02-13T15:31:09.886Z,13.80
2023-02-13T15:35:27.130Z,12.90
2023-02-13T15:39:30.990Z,13.00
2023-02-13T15:43:42.673Z,12.20
2023-02-13T15:47:45.897Z,13.10
2023-02-13T15:51:48.193Z,13.60
2023-02-13T15:56:00.925Z,13.50
2023-02-13T16:00:03.821Z,12.90
2023-02-13T16:04:10.298Z,13.40
2023-02-13T16:08:30.402Z,12.70
2023-02-13T16:12:31.713Z,13.40
2023-02-13T16:16:54.983Z,12.90
2023-02-13T16:20:56.762Z,13.00
2023-02-13T16:25:13.926Z,12.90
2023-02-13T16:29:21.553Z,11.70
2023-02-13T16:33:32.955Z,12.40
2023-02-13T16:37:34.291Z,12.50
2023-02-13T16:41:35.564Z,12.60
2023-02-13T16:45:37.201Z,12.70
2023-02-13T16:49:38.869Z,12.90
2023-02-13T16:53:40.443Z,12.40
2023-02-13T16:57:43.956Z,12.40
2023-02-13T17:01:45.269Z,11.90
2023-02-13T17:05:46.597Z,12.00
2023-02-13T17:10:06.549Z,11.90
2023-02-13T17:14:07.835Z,11.30
2023-02-13T17:18:09.504Z,11.30
2023-02-13T17:22:19.757Z,11.60
2023-02-13T17:26:20.820Z,11.60
2023-02-13T17:30:28.103Z,11.40
2023-02-13T17:34:29.295Z,11.10
2023-02-13T17:38:30.619Z,11.10
2023-02-13T17:42:32.164Z,10.70
2023-02-13T17:46:33.273Z,10.70
2023-02-13T17:50:35.692Z,10.50
2023-02-13T17:54:36.819Z,10.30
2023-02-13T17:58:38.084Z,10.30
2023-02-13T18:02:39.262Z,9.80
2023-02-13T18:06:40.836Z,9.90
2023-02-13T18:10:42.207Z,9.80
2023-02-13T18:14:43.577Z,9.90
2023-02-13T18:18:45.148Z,9.80
2023-02-13T18:22:47.229Z,9.80
2023-02-13T18:26:48.994Z,9.70
2023-02-13T18:30:50.690Z,9.90
2023-02-13T18:34:52.247Z,9.80
2023-02-13T18:38:53.905Z,9.80
2023-02-13T18:42:54.932Z,9.90
2023-02-13T18:46:56.160Z,9.90
2023-02-13T18:51:01.407Z,9.80
2023-02-13T18:55:05.815Z,9.70
2023-02-13T18:59:07.080Z,9.50
2023-02-13T19:03:08.132Z,9.60
2023-02-13T19:07:09.455Z,9.40
2023-02-13T19:11:13.793Z,9.00
2023-02-13T19:15:15.830Z,9.00
2023-02-13T19:19:17.129Z,9.10
2023-02-13T19:23:18.329Z,8.80
2023-02-13T19:27:19.445Z,8.90
2023-02-13T19:31:23.906Z,8.80
2023-02-13T19:35:25.392Z,8.80
2023-02-13T19:39:26.465Z,8.80
2023-02-13T19:43:27.895Z,8.60
2023-02-13T19:51:44.634Z,8.80
2023-02-13T19:55:45.833Z,8.70
2023-02-13T19:59:47.872Z,8.90
2023-02-13T20:03:49.308Z,8.60
2023-02-13T20:07:50.730Z,8.50
2023-02-13T20:11:52.363Z,8.40
2023-02-13T20:15:54.839Z,8.30
2023-02-13T20:19:57.489Z,8.40
2023-02-13T20:23:58.596Z,8.40
2023-02-13T20:28:00.066Z,8.00
2023-02-13T20:32:01.785Z,8.10
2023-02-13T20:36:14.110Z,7.70
2023-02-13T20:40:15.528Z,7.40
2023-02-13T20:44:22.151Z,7.60
2023-02-13T20:48:23.772Z,8.10
2023-02-13T20:52:25.430Z,8.00
2023-02-13T20:56:28.076Z,8.00
2023-02-13T21:00:29.298Z,7.90
2023-02-13T21:04:34.726Z,7.70
2023-02-13T21:08:36.785Z,8.00
2023-02-13T21:12:38.083Z,8.10
2023-02-13T21:16:40.572Z,8.10
2023-02-13T21:20:41.994Z,7.50
2023-02-13T21:24:43.568Z,7.10
2023-02-13T21:28:46.701Z,7.10
2023-02-13T21:32:48.109Z,6.90
2023-02-13T21:36:52.478Z,7.20
2023-02-13T21:40:53.915Z,7.10
2023-02-13T21:44:55.256Z,7.50
2023-02-13T21:48:59.948Z,7.10
2023-02-13T21:53:01.160Z,6.50
2023-02-13T21:57:03.772Z,6.90
2023-02-13T22:01:25.412Z,6.70
2023-02-13T22:05:17.873Z,7.30
2023-02-13T22:09:20.523Z,7.70
2023-02-13T22:13:22.340Z,8.10
2023-02-13T22:17:23.634Z,7.30
2023-02-13T22:21:27.200Z,7.50
2023-02-13T22:25:28.854Z,7.30
2023-02-13T22:29:30.428Z,7.90
2023-02-13T22:33:33.500Z,7.80
2023-02-13T22:37:35.899Z,7.20
2023-02-13T22:41:37.610Z,7.60
2023-02-13T22:45:39.347Z,7.80
2023-02-13T22:49:40.514Z,8.00
2023-02-13T22:53:42.156Z,8.00
2023-02-13T22:57:45.257Z,8.00
2023-02-13T23:01:46.315Z,7.50
2023-02-13T23:05:47.427Z,7.70
2023-02-13T23:09:48.524Z,7.00
2023-02-13T23:13:49.489Z,7.60
2023-02-13T23:18:09.116Z,7.30
2023-02-13T23:22:12.160Z,6.90
2023-02-13T23:26:13.541Z,7.80
2023-02-13T23:30:16.723Z,7.80
2023-02-13T23:34:18.417Z,7.40
2023-02-13T23:38:20.540Z,6.40
2023-02-13T23:42:22.211Z,6.50
2023-02-13T23:46:23.295Z,7.30
2023-02-13T23:50:24.231Z,7.70
2023-02-13T23:54:25.694Z,6.70
2023-02-13T23:58:27.307Z,6.20
